Aérodrome :
LOGIN :

S'inscrire | Disclaimer

   EN    FR    IT 

 










Légende :    VFR   VFR Marginal   IFR   IFR Intensif   IFR Très Intensif
Visi : 
Plafond : 
>= 8 km
>= 3000ft
5 à 8 km
1000 à 3000 ft
1500m à 5 km
500 à 1000 ft
800 à 1500m
200 à 500 ft
< 800m
< 200 ft
Symboles :   Orages  Brouillard  Fortes neiges  Fortes précipitations  Vent > 20 kt
SIGMETs :   Divers  Orages  Givrage  Turbulence  Onde Orograph.  Cendres Volcan.






- Altitude de l'aérodrome : 161 ft
- Code IATA : TKU


EFTU - Turku

DERNIER METAR :
  • 031120Z AUTO 14008KT 100V190 CAVOK 19/02 Q1012

METARs EXPIRÉS :
  • 031050Z AUTO 15010KT 120V190 CAVOK 19/02 Q1013
  • 031020Z AUTO VRB05KT CAVOK 18/03 Q1013
  • 030950Z AUTO 11006KT 050V150 CAVOK 18/03 Q1013
  • 030920Z AUTO 15007KT 100V180 CAVOK 18/02 Q1013
  • 030850Z AUTO 13009KT 080V170 CAVOK 18/02 Q1014

TAF TAF EFTU
Valide du 03 à 09h jusqu'au 04 à 09h UTC


030826Z 0309/0409 13010KT CAVOK
PROB30 0312/0317 22008KT
BECMG 0320/0322 04003KT



MET'MAP, la Météo Aéronautique d'un coup d'oeil ! - Copyright ORBIFLY Décembre 2007 - Disclaimer

ORBIFLY MET'MAP TEAM :

Programmation & Développement : Alexandra Zaïnal
Sur une idée originale de : Baudouin d'Aumeries
Assistance à la programmation : Marc-Olivier Méhu
Soutien technique & logistique : Manuel Goepfert

Contact : metmap@orbifly.com




SOURCES & CREDITS :

   NOAA